sensor_id;sensor_type;location;lat;lon;timestamp;pressure;altitude;pressure_sealevel;temperature;humidity
75996;BME280;64681;49.738;9.004;2023-05-07T00:01:50;99457.88;;;13.17;77.53
75996;BME280;64681;49.738;9.004;2023-05-07T00:04:15;99459.78;;;13.17;77.41
75996;BME280;64681;49.738;9.004;2023-05-07T00:06:41;99462.56;;;13.20;77.05
75996;BME280;64681;49.738;9.004;2023-05-07T00:09:06;99458.56;;;13.14;77.90
75996;BME280;64681;49.738;9.004;2023-05-07T00:11:33;99461.66;;;13.16;77.41
75996;BME280;64681;49.738;9.004;2023-05-07T00:13:58;99461.84;;;13.07;77.41
75996;BME280;64681;49.738;9.004;2023-05-07T00:16:25;99464.69;;;12.98;78.07
75996;BME280;64681;49.738;9.004;2023-05-07T00:18:50;99462.19;;;13.06;77.43
75996;BME280;64681;49.738;9.004;2023-05-07T00:21:16;99459.69;;;13.13;77.00
75996;BME280;64681;49.738;9.004;2023-05-07T00:23:41;99469.31;;;13.14;76.54
75996;BME280;64681;49.738;9.004;2023-05-07T00:26:07;99456.84;;;13.06;76.44
75996;BME280;64681;49.738;9.004;2023-05-07T00:28:33;99452.16;;;12.74;78.17
75996;BME280;64681;49.738;9.004;2023-05-07T00:30:58;99460.75;;;12.80;78.36
75996;BME280;64681;49.738;9.004;2023-05-07T00:33:24;99457.91;;;12.89;77.54
75996;BME280;64681;49.738;9.004;2023-05-07T00:35:52;99461.66;;;12.72;78.53
75996;BME280;64681;49.738;9.004;2023-05-07T00:38:17;99454.28;;;12.81;78.12
75996;BME280;64681;49.738;9.004;2023-05-07T00:40:43;99453.44;;;12.64;78.64
75996;BME280;64681;49.738;9.004;2023-05-07T00:43:08;99456.75;;;12.74;78.13
75996;BME280;64681;49.738;9.004;2023-05-07T00:45:34;99458.25;;;12.59;78.68
75996;BME280;64681;49.738;9.004;2023-05-07T00:48:01;99457.69;;;12.65;78.38
75996;BME280;64681;49.738;9.004;2023-05-07T00:50:28;99458.69;;;12.61;78.86
75996;BME280;64681;49.738;9.004;2023-05-07T00:52:54;99463.38;;;12.64;78.70
75996;BME280;64681;49.738;9.004;2023-05-07T00:55:21;99462.78;;;12.71;78.57
75996;BME280;64681;49.738;9.004;2023-05-07T00:57:46;99459.72;;;12.85;77.98
75996;BME280;64681;49.738;9.004;2023-05-07T01:00:12;99457.16;;;13.04;77.36
75996;BME280;64681;49.738;9.004;2023-05-07T01:02:39;99449.91;;;13.05;77.43
75996;BME280;64681;49.738;9.004;2023-05-07T01:05:07;99450.78;;;13.09;77.10
75996;BME280;64681;49.738;9.004;2023-05-07T01:07:36;99447.88;;;12.86;78.05
75996;BME280;64681;49.738;9.004;2023-05-07T01:10:04;99452.97;;;12.75;78.53
75996;BME280;64681;49.738;9.004;2023-05-07T01:12:31;99452.44;;;12.57;79.11
75996;BME280;64681;49.738;9.004;2023-05-07T01:14:58;99450.31;;;12.62;78.68
75996;BME280;64681;49.738;9.004;2023-05-07T01:17:24;99448.91;;;12.53;79.09
75996;BME280;64681;49.738;9.004;2023-05-07T01:19:50;99463.78;;;12.38;79.90
75996;BME280;64681;49.738;9.004;2023-05-07T01:22:28;99450.47;;;12.54;79.11
75996;BME280;64681;49.738;9.004;2023-05-07T01:24:54;99455.00;;;12.65;78.51
75996;BME280;64681;49.738;9.004;2023-05-07T01:27:21;99451.22;;;12.66;78.18
75996;BME280;64681;49.738;9.004;2023-05-07T01:29:46;99453.34;;;12.61;78.69
75996;BME280;64681;49.738;9.004;2023-05-07T01:32:15;99453.72;;;12.47;79.60
75996;BME280;64681;49.738;9.004;2023-05-07T01:34:46;99444.53;;;12.60;78.65
75996;BME280;64681;49.738;9.004;2023-05-07T01:37:14;99444.94;;;12.75;78.22
75996;BME280;64681;49.738;9.004;2023-05-07T01:39:40;99442.75;;;12.80;78.03
75996;BME280;64681;49.738;9.004;2023-05-07T01:42:07;99439.75;;;12.82;77.90
75996;BME280;64681;49.738;9.004;2023-05-07T01:44:33;99436.91;;;12.91;77.35
75996;BME280;64681;49.738;9.004;2023-05-07T01:46:59;99437.06;;;12.82;77.84
75996;BME280;64681;49.738;9.004;2023-05-07T01:49:25;99439.31;;;12.80;78.11
75996;BME280;64681;49.738;9.004;2023-05-07T01:51:51;99436.25;;;12.65;78.37
75996;BME280;64681;49.738;9.004;2023-05-07T01:54:17;99441.81;;;12.73;78.50
75996;BME280;64681;49.738;9.004;2023-05-07T01:56:42;99441.25;;;12.67;78.79
75996;BME280;64681;49.738;9.004;2023-05-07T01:59:08;99438.31;;;12.72;78.47
75996;BME280;64681;49.738;9.004;2023-05-07T02:01:33;99441.16;;;12.63;78.75
75996;BME280;64681;49.738;9.004;2023-05-07T02:03:59;99440.50;;;12.66;78.74
75996;BME280;64681;49.738;9.004;2023-05-07T02:06:24;99430.19;;;12.69;78.35
75996;BME280;64681;49.738;9.004;2023-05-07T02:08:50;99438.75;;;12.58;78.44
75996;BME280;64681;49.738;9.004;2023-05-07T02:11:15;99441.13;;;12.47;78.97
75996;BME280;64681;49.738;9.004;2023-05-07T02:13:41;99443.00;;;12.47;78.72
75996;BME280;64681;49.738;9.004;2023-05-07T02:16:07;99442.25;;;12.46;79.11
75996;BME280;64681;49.738;9.004;2023-05-07T02:18:32;99440.63;;;12.58;78.25
75996;BME280;64681;49.738;9.004;2023-05-07T02:20:58;99448.75;;;12.61;77.99
75996;BME280;64681;49.738;9.004;2023-05-07T02:23:24;99447.00;;;12.53;78.57
75996;BME280;64681;49.738;9.004;2023-05-07T02:25:49;99447.44;;;12.55;78.56
75996;BME280;64681;49.738;9.004;2023-05-07T02:28:15;99445.25;;;12.45;78.97
75996;BME280;64681;49.738;9.004;2023-05-07T02:30:41;99448.03;;;12.48;78.81
75996;BME280;64681;49.738;9.004;2023-05-07T02:33:06;99441.03;;;12.44;79.20
75996;BME280;64681;49.738;9.004;2023-05-07T02:35:33;99446.28;;;12.40;79.50
75996;BME280;64681;49.738;9.004;2023-05-07T02:37:59;99447.34;;;12.51;79.11
75996;BME280;64681;49.738;9.004;2023-05-07T02:40:24;99444.00;;;12.55;78.61
75996;BME280;64681;49.738;9.004;2023-05-07T02:42:50;99442.88;;;12.56;78.84
75996;BME280;64681;49.738;9.004;2023-05-07T02:45:15;99448.66;;;12.58;78.65
75996;BME280;64681;49.738;9.004;2023-05-07T02:47:41;99444.00;;;12.55;78.92
75996;BME280;64681;49.738;9.004;2023-05-07T02:50:07;99441.94;;;12.35;79.59
75996;BME280;64681;49.738;9.004;2023-05-07T02:52:33;99454.53;;;12.35;79.66
75996;BME280;64681;49.738;9.004;2023-05-07T02:54:58;99454.06;;;12.45;79.36
75996;BME280;64681;49.738;9.004;2023-05-07T02:57:24;99447.00;;;12.53;78.53
75996;BME280;64681;49.738;9.004;2023-05-07T02:59:49;99448.91;;;12.53;78.46
75996;BME280;64681;49.738;9.004;2023-05-07T03:02:16;99443.44;;;12.49;78.42
75996;BME280;64681;49.738;9.004;2023-05-07T03:04:41;99452.06;;;12.42;78.90
75996;BME280;64681;49.738;9.004;2023-05-07T03:07:07;99456.19;;;12.40;79.14
75996;BME280;64681;49.738;9.004;2023-05-07T03:09:33;99448.13;;;12.52;78.81
75996;BME280;64681;49.738;9.004;2023-05-07T03:11:58;99451.88;;;12.63;78.20
75996;BME280;64681;49.738;9.004;2023-05-07T03:14:24;99446.88;;;12.62;78.42
75996;BME280;64681;49.738;9.004;2023-05-07T03:16:49;99443.06;;;12.63;78.41
75996;BME280;64681;49.738;9.004;2023-05-07T03:19:15;99440.50;;;12.66;78.54
75996;BME280;64681;49.738;9.004;2023-05-07T03:21:41;99439.59;;;12.62;78.00
75996;BME280;64681;49.738;9.004;2023-05-07T03:24:07;99440.09;;;12.52;78.86
75996;BME280;64681;49.738;9.004;2023-05-07T03:26:32;99438.38;;;12.60;78.46
75996;BME280;64681;49.738;9.004;2023-05-07T03:28:58;99445.56;;;12.56;78.76
75996;BME280;64681;49.738;9.004;2023-05-07T03:31:23;99435.47;;;12.65;78.59
75996;BME280;64681;49.738;9.004;2023-05-07T03:33:56;99443.50;;;12.65;78.32
75996;BME280;64681;49.738;9.004;2023-05-07T03:36:23;99445.88;;;12.54;78.83
75996;BME280;64681;49.738;9.004;2023-05-07T03:38:49;99440.78;;;12.49;79.02
75996;BME280;64681;49.738;9.004;2023-05-07T03:41:15;99436.63;;;12.51;78.83
75996;BME280;64681;49.738;9.004;2023-05-07T03:43:41;99443.00;;;12.47;79.19
75996;BME280;64681;49.738;9.004;2023-05-07T03:46:07;99444.75;;;12.55;79.02
75996;BME280;64681;49.738;9.004;2023-05-07T03:48:33;99436.34;;;12.69;78.39
75996;BME280;64681;49.738;9.004;2023-05-07T03:50:58;99440.91;;;12.69;78.37
75996;BME280;64681;49.738;9.004;2023-05-07T03:53:24;99439.69;;;12.66;78.02
75996;BME280;64681;49.738;9.004;2023-05-07T03:55:50;99432.69;;;12.61;78.33
75996;BME280;64681;49.738;9.004;2023-05-07T03:58:16;99436.59;;;12.64;78.29
75996;BME280;64681;49.738;9.004;2023-05-07T04:00:41;99436.59;;;12.64;78.30
75996;BME280;64681;49.738;9.004;2023-05-07T04:03:07;99429.13;;;12.57;78.77
75996;BME280;64681;49.738;9.004;2023-05-07T04:05:33;99434.00;;;12.68;78.33
75996;BME280;64681;49.738;9.004;2023-05-07T04:07:58;99433.66;;;12.69;78.12
75996;BME280;64681;49.738;9.004;2023-05-07T04:10:24;99438.78;;;12.74;77.95
75996;BME280;64681;49.738;9.004;2023-05-07T04:12:50;99439.69;;;12.94;77.59
75996;BME280;64681;49.738;9.004;2023-05-07T04:15:15;99443.75;;;13.04;77.00
75996;BME280;64681;49.738;9.004;2023-05-07T04:17:41;99445.22;;;12.86;77.39
75996;BME280;64681;49.738;9.004;2023-05-07T04:20:09;99445.31;;;12.89;77.90
75996;BME280;64681;49.738;9.004;2023-05-07T04:22:35;99446.34;;;13.01;77.45
75996;BME280;64681;49.738;9.004;2023-05-07T04:25:01;99446.28;;;13.13;76.98
75996;BME280;64681;49.738;9.004;2023-05-07T04:27:27;99448.13;;;13.25;76.60
75996;BME280;64681;49.738;9.004;2023-05-07T04:29:53;99457.09;;;13.33;76.32
75996;BME280;64681;49.738;9.004;2023-05-07T04:32:21;99447.16;;;13.33;76.20
75996;BME280;64681;49.738;9.004;2023-05-07T04:34:47;99453.31;;;13.34;76.57
75996;BME280;64681;49.738;9.004;2023-05-07T04:37:13;99461.72;;;13.48;76.09
75996;BME280;64681;49.738;9.004;2023-05-07T04:39:38;99462.34;;;13.57;75.43
75996;BME280;64681;49.738;9.004;2023-05-07T04:42:04;99455.13;;;13.61;75.63
75996;BME280;64681;49.738;9.004;2023-05-07T04:44:29;99465.44;;;13.75;75.38
75996;BME280;64681;49.738;9.004;2023-05-07T04:46:56;99456.59;;;13.75;74.75
75996;BME280;64681;49.738;9.004;2023-05-07T04:49:22;99459.47;;;13.82;74.87
75996;BME280;64681;49.738;9.004;2023-05-07T04:51:47;99466.34;;;13.83;74.79
75996;BME280;64681;49.738;9.004;2023-05-07T04:54:13;99468.06;;;13.91;74.76
75996;BME280;64681;49.738;9.004;2023-05-07T04:56:38;99461.06;;;14.03;74.66
75996;BME280;64681;49.738;9.004;2023-05-07T04:59:04;99466.22;;;14.12;74.07
75996;BME280;64681;49.738;9.004;2023-05-07T05:01:29;99475.16;;;14.16;73.83
75996;BME280;64681;49.738;9.004;2023-05-07T05:03:55;99476.06;;;14.23;73.85
75996;BME280;64681;49.738;9.004;2023-05-07T05:06:20;99480.16;;;14.17;73.82
75996;BME280;64681;49.738;9.004;2023-05-07T05:08:46;99480.69;;;14.43;72.80
75996;BME280;64681;49.738;9.004;2023-05-07T05:11:12;99490.94;;;14.56;72.28
75996;BME280;64681;49.738;9.004;2023-05-07T05:13:37;99490.66;;;14.62;72.20
75996;BME280;64681;49.738;9.004;2023-05-07T05:16:03;99481.47;;;14.63;72.15
75996;BME280;64681;49.738;9.004;2023-05-07T05:18:28;99490.56;;;14.74;72.59
75996;BME280;64681;49.738;9.004;2023-05-07T05:20:54;99492.38;;;14.90;71.62
75996;BME280;64681;49.738;9.004;2023-05-07T05:23:20;99493.06;;;15.06;71.78
75996;BME280;64681;49.738;9.004;2023-05-07T05:25:45;99479.34;;;15.34;70.31
75996;BME280;64681;49.738;9.004;2023-05-07T05:28:11;99482.25;;;15.49;70.41
75996;BME280;64681;49.738;9.004;2023-05-07T05:30:36;99483.47;;;15.51;69.81
75996;BME280;64681;49.738;9.004;2023-05-07T05:33:02;99486.38;;;15.66;69.66
75996;BME280;64681;49.738;9.004;2023-05-07T05:35:29;99483.81;;;15.73;69.58
75996;BME280;64681;49.738;9.004;2023-05-07T05:37:54;99486.91;;;15.98;68.21
75996;BME280;64681;49.738;9.004;2023-05-07T05:40:20;99492.66;;;15.97;68.54
75996;BME280;64681;49.738;9.004;2023-05-07T05:42:45;99483.88;;;16.04;68.41
75996;BME280;64681;49.738;9.004;2023-05-07T05:45:11;99485.06;;;16.06;68.47
75996;BME280;64681;49.738;9.004;2023-05-07T05:47:37;99488.38;;;16.23;67.32
75996;BME280;64681;49.738;9.004;2023-05-07T05:50:03;99490.31;;;16.22;68.02
75996;BME280;64681;49.738;9.004;2023-05-07T05:52:30;99492.75;;;16.35;68.28
75996;BME280;64681;49.738;9.004;2023-05-07T05:54:55;99492.13;;;16.45;67.89
75996;BME280;64681;49.738;9.004;2023-05-07T05:57:21;99491.56;;;16.63;67.13
75996;BME280;64681;49.738;9.004;2023-05-07T05:59:46;99492.06;;;16.72;66.74
75996;BME280;64681;49.738;9.004;2023-05-07T06:02:12;99488.78;;;16.89;65.83
75996;BME280;64681;49.738;9.004;2023-05-07T06:04:38;99493.97;;;17.05;65.43
75996;BME280;64681;49.738;9.004;2023-05-07T06:07:03;99490.97;;;17.11;64.98
75996;BME280;64681;49.738;9.004;2023-05-07T06:09:29;99488.31;;;17.18;65.22
75996;BME280;64681;49.738;9.004;2023-05-07T06:11:54;99487.97;;;17.23;65.21
75996;BME280;64681;49.738;9.004;2023-05-07T06:14:20;99493.91;;;17.39;64.16
75996;BME280;64681;49.738;9.004;2023-05-07T06:16:45;99498.59;;;17.43;64.69
75996;BME280;64681;49.738;9.004;2023-05-07T06:19:11;99497.41;;;17.44;64.89
75996;BME280;64681;49.738;9.004;2023-05-07T06:21:36;99496.25;;;17.45;65.09
75996;BME280;64681;49.738;9.004;2023-05-07T06:24:02;99491.38;;;17.58;64.61
75996;BME280;64681;49.738;9.004;2023-05-07T06:26:27;99492.22;;;17.69;63.50
75996;BME280;64681;49.738;9.004;2023-05-07T06:28:53;99495.75;;;17.77;63.23
75996;BME280;64681;49.738;9.004;2023-05-07T06:31:19;99492.13;;;17.54;64.42
75996;BME280;64681;49.738;9.004;2023-05-07T06:33:49;99500.66;;;17.64;64.54
75996;BME280;64681;49.738;9.004;2023-05-07T06:36:15;99498.41;;;17.69;64.61
75996;BME280;64681;49.738;9.004;2023-05-07T06:38:41;99505.03;;;17.83;64.76
75996;BME280;64681;49.738;9.004;2023-05-07T06:41:06;99502.88;;;17.99;64.77
75996;BME280;64681;49.738;9.004;2023-05-07T06:43:32;99499.13;;;17.66;60.49
75996;BME280;64681;49.738;9.004;2023-05-07T06:45:58;99497.94;;;18.12;60.22
75996;BME280;64681;49.738;9.004;2023-05-07T06:48:24;99498.34;;;18.14;58.16
75996;BME280;64681;49.738;9.004;2023-05-07T06:50:50;99504.97;;;17.72;59.80
75996;BME280;64681;49.738;9.004;2023-05-07T06:53:15;99506.50;;;18.22;59.63
75996;BME280;64681;49.738;9.004;2023-05-07T06:55:41;99506.28;;;18.63;59.62
75996;BME280;64681;49.738;9.004;2023-05-07T06:58:07;99498.94;;;18.56;56.51
75996;BME280;64681;49.738;9.004;2023-05-07T07:00:32;99507.25;;;18.22;58.78
75996;BME280;64681;49.738;9.004;2023-05-07T07:02:58;99499.06;;;18.96;57.15
75996;BME280;64681;49.738;9.004;2023-05-07T07:05:24;99511.13;;;19.35;56.70
75996;BME280;64681;49.738;9.004;2023-05-07T07:07:50;99510.75;;;19.54;54.77
75996;BME280;64681;49.738;9.004;2023-05-07T07:10:21;99505.31;;;19.76;52.90
75996;BME280;64681;49.738;9.004;2023-05-07T07:12:48;99505.72;;;19.82;54.05
75996;BME280;64681;49.738;9.004;2023-05-07T07:15:14;99508.34;;;18.98;55.51
75996;BME280;64681;49.738;9.004;2023-05-07T07:17:39;99500.06;;;18.51;56.03
75996;BME280;64681;49.738;9.004;2023-05-07T07:20:05;99501.03;;;19.13;55.34
75996;BME280;64681;49.738;9.004;2023-05-07T07:22:31;99488.66;;;19.16;55.72
75996;BME280;64681;49.738;9.004;2023-05-07T07:24:56;99494.88;;;19.82;53.23
75996;BME280;64681;49.738;9.004;2023-05-07T07:27:22;99497.97;;;19.33;53.92
75996;BME280;64681;49.738;9.004;2023-05-07T07:29:47;99498.34;;;19.71;53.92
75996;BME280;64681;49.738;9.004;2023-05-07T07:32:13;99508.44;;;19.60;54.08
75996;BME280;64681;49.738;9.004;2023-05-07T07:34:39;99495.63;;;20.11;52.76
75996;BME280;64681;49.738;9.004;2023-05-07T07:37:04;99501.59;;;20.69;51.50
75996;BME280;64681;49.738;9.004;2023-05-07T07:39:35;99496.94;;;20.77;52.09
75996;BME280;64681;49.738;9.004;2023-05-07T07:42:02;99500.06;;;20.68;52.16
75996;BME280;64681;49.738;9.004;2023-05-07T07:44:28;99500.19;;;21.17;50.54
75996;BME280;64681;49.738;9.004;2023-05-07T07:46:54;99505.94;;;20.49;51.66
75996;BME280;64681;49.738;9.004;2023-05-07T07:49:19;99499.16;;;20.97;50.40
75996;BME280;64681;49.738;9.004;2023-05-07T07:51:45;99506.25;;;20.69;51.85
75996;BME280;64681;49.738;9.004;2023-05-07T07:54:11;99500.16;;;20.43;51.72
75996;BME280;64681;49.738;9.004;2023-05-07T07:56:36;99505.16;;;20.59;52.00
75996;BME280;64681;49.738;9.004;2023-05-07T07:59:02;99504.34;;;20.62;51.71
75996;BME280;64681;49.738;9.004;2023-05-07T08:01:29;99509.91;;;21.15;50.29
75996;BME280;64681;49.738;9.004;2023-05-07T08:03:55;99502.78;;;21.35;49.47
75996;BME280;64681;49.738;9.004;2023-05-07T08:06:21;99509.63;;;20.98;50.08
75996;BME280;64681;49.738;9.004;2023-05-07T08:08:46;99488.25;;;20.15;52.17
75996;BME280;64681;49.738;9.004;2023-05-07T08:11:12;99507.03;;;20.73;50.85
75996;BME280;64681;49.738;9.004;2023-05-07T08:13:38;99517.78;;;20.95;50.97
75996;BME280;64681;49.738;9.004;2023-05-07T08:16:04;99525.56;;;20.89;49.97
75996;BME280;64681;49.738;9.004;2023-05-07T08:18:29;99521.69;;;20.94;50.37
75996;BME280;64681;49.738;9.004;2023-05-07T08:20:55;99517.84;;;20.84;50.93
75996;BME280;64681;49.738;9.004;2023-05-07T08:23:21;99523.38;;;20.48;52.16
75996;BME280;64681;49.738;9.004;2023-05-07T08:25:47;99538.34;;;20.88;50.33
75996;BME280;64681;49.738;9.004;2023-05-07T08:28:13;99526.63;;;21.10;50.49
75996;BME280;64681;49.738;9.004;2023-05-07T08:30:39;99523.34;;;21.37;49.59
75996;BME280;64681;49.738;9.004;2023-05-07T08:33:04;99519.78;;;21.43;49.96
75996;BME280;64681;49.738;9.004;2023-05-07T08:35:30;99522.50;;;21.43;49.60
75996;BME280;64681;49.738;9.004;2023-05-07T08:37:55;99507.25;;;21.64;49.05
75996;BME280;64681;49.738;9.004;2023-05-07T08:40:25;99524.13;;;22.24;48.23
75996;BME280;64681;49.738;9.004;2023-05-07T08:42:52;99522.50;;;21.92;49.96
75996;BME280;64681;49.738;9.004;2023-05-07T08:45:19;99519.75;;;22.69;48.41
75996;BME280;64681;49.738;9.004;2023-05-07T08:47:53;99526.50;;;23.15;45.99
75996;BME280;64681;49.738;9.004;2023-05-07T08:50:20;99530.59;;;22.72;46.24
75996;BME280;64681;49.738;9.004;2023-05-07T08:52:46;99531.69;;;23.37;44.89
75996;BME280;64681;49.738;9.004;2023-05-07T08:55:13;99527.94;;;23.51;45.24
75996;BME280;64681;49.738;9.004;2023-05-07T08:57:39;99533.63;;;22.78;46.83
75996;BME280;64681;49.738;9.004;2023-05-07T09:00:05;99529.72;;;23.37;45.11
75996;BME280;64681;49.738;9.004;2023-05-07T09:02:33;99530.31;;;23.25;45.37
75996;BME280;64681;49.738;9.004;2023-05-07T09:05:00;99526.34;;;22.37;46.97
75996;BME280;64681;49.738;9.004;2023-05-07T09:07:25;99524.47;;;22.96;45.86
75996;BME280;64681;49.738;9.004;2023-05-07T09:09:51;99534.91;;;23.28;45.19
75996;BME280;64681;49.738;9.004;2023-05-07T09:12:18;99531.28;;;23.38;45.42
75996;BME280;64681;49.738;9.004;2023-05-07T09:14:45;99520.16;;;22.67;46.46
75996;BME280;64681;49.738;9.004;2023-05-07T09:17:11;99518.00;;;21.78;48.76
75996;BME280;64681;49.738;9.004;2023-05-07T09:19:36;99518.03;;;22.82;46.56
75996;BME280;64681;49.738;9.004;2023-05-07T09:22:04;99516.19;;;22.75;46.78
75996;BME280;64681;49.738;9.004;2023-05-07T09:24:30;99520.19;;;23.49;46.20
75996;BME280;64681;49.738;9.004;2023-05-07T09:27:01;99512.50;;;23.44;45.90
75996;BME280;64681;49.738;9.004;2023-05-07T09:29:28;99506.94;;;23.75;44.39
75996;BME280;64681;49.738;9.004;2023-05-07T09:32:06;99510.28;;;23.59;45.81
75996;BME280;64681;49.738;9.004;2023-05-07T09:34:32;99513.78;;;23.83;44.69
75996;BME280;64681;49.738;9.004;2023-05-07T09:37:02;99518.59;;;23.76;44.29
75996;BME280;64681;49.738;9.004;2023-05-07T09:39:45;99523.16;;;23.82;46.25
75996;BME280;64681;49.738;9.004;2023-05-07T09:42:12;99525.28;;;24.39;44.21
75996;BME280;64681;49.738;9.004;2023-05-07T09:44:38;99527.84;;;24.26;44.19
75996;BME280;64681;49.738;9.004;2023-05-07T09:47:07;99521.75;;;24.38;44.65
75996;BME280;64681;49.738;9.004;2023-05-07T09:49:39;99519.47;;;24.93;42.75
75996;BME280;64681;49.738;9.004;2023-05-07T09:52:07;99513.19;;;24.76;43.90
75996;BME280;64681;49.738;9.004;2023-05-07T09:54:37;99510.00;;;25.15;42.72
75996;BME280;64681;49.738;9.004;2023-05-07T09:57:05;99509.41;;;23.66;44.75
75996;BME280;64681;49.738;9.004;2023-05-07T09:59:32;99511.09;;;23.60;45.13
75996;BME280;64681;49.738;9.004;2023-05-07T10:01:59;99505.41;;;22.96;47.15
75996;BME280;64681;49.738;9.004;2023-05-07T10:04:26;99498.97;;;23.61;46.53
75996;BME280;64681;49.738;9.004;2023-05-07T10:06:52;99492.44;;;23.78;45.84
75996;BME280;64681;49.738;9.004;2023-05-07T10:09:20;99488.09;;;24.05;47.00
75996;BME280;64681;49.738;9.004;2023-05-07T10:11:48;99471.53;;;24.15;45.73
75996;BME280;64681;49.738;9.004;2023-05-07T10:14:15;99473.31;;;24.62;43.89
75996;BME280;64681;49.738;9.004;2023-05-07T10:16:41;99490.72;;;23.88;46.23
75996;BME280;64681;49.738;9.004;2023-05-07T10:19:08;99483.72;;;22.88;48.47
75996;BME280;64681;49.738;9.004;2023-05-07T10:21:39;99490.69;;;23.20;48.09
75996;BME280;64681;49.738;9.004;2023-05-07T10:24:12;99481.97;;;23.77;44.89
75996;BME280;64681;49.738;9.004;2023-05-07T10:26:45;99469.66;;;23.21;45.40
75996;BME280;64681;49.738;9.004;2023-05-07T10:34:12;99479.31;;;24.54;43.79
75996;BME280;64681;49.738;9.004;2023-05-07T10:36:41;99476.06;;;24.22;44.07
75996;BME280;64681;49.738;9.004;2023-05-07T10:39:08;99473.28;;;24.83;43.73
75996;BME280;64681;49.738;9.004;2023-05-07T10:41:33;99472.72;;;25.24;42.21
75996;BME280;64681;49.738;9.004;2023-05-07T10:44:00;99476.81;;;25.00;43.16
75996;BME280;64681;49.738;9.004;2023-05-07T10:46:27;99468.03;;;25.41;41.59
75996;BME280;64681;49.738;9.004;2023-05-07T10:51:30;99465.97;;;25.12;42.68
75996;BME280;64681;49.738;9.004;2023-05-07T10:56:39;99482.09;;;25.56;41.97
75996;BME280;64681;49.738;9.004;2023-05-07T11:02:01;99458.66;;;26.69;39.16
75996;BME280;64681;49.738;9.004;2023-05-07T11:04:32;99461.50;;;26.53;42.70
75996;BME280;64681;49.738;9.004;2023-05-07T11:15:10;99455.38;;;27.13;38.10
75996;BME280;64681;49.738;9.004;2023-05-07T11:18:02;99464.00;;;26.21;39.22
75996;BME280;64681;49.738;9.004;2023-05-07T11:21:01;99460.88;;;26.62;38.17
75996;BME280;64681;49.738;9.004;2023-05-07T11:26:00;99442.78;;;25.34;40.34
75996;BME280;64681;49.738;9.004;2023-05-07T11:28:37;99456.91;;;25.49;41.00
75996;BME280;64681;49.738;9.004;2023-05-07T11:31:03;99447.47;;;25.96;39.21
75996;BME280;64681;49.738;9.004;2023-05-07T11:33:30;99452.88;;;25.53;40.62
75996;BME280;64681;49.738;9.004;2023-05-07T11:35:57;99446.34;;;25.64;40.07
75996;BME280;64681;49.738;9.004;2023-05-07T11:38:24;99434.28;;;25.78;39.24
75996;BME280;64681;49.738;9.004;2023-05-07T11:41:16;99427.25;;;25.76;40.09
75996;BME280;64681;49.738;9.004;2023-05-07T11:43:56;99432.13;;;25.23;40.46
75996;BME280;64681;49.738;9.004;2023-05-07T11:46:21;99441.94;;;25.37;41.05
75996;BME280;64681;49.738;9.004;2023-05-07T11:48:47;99446.47;;;24.94;42.16
75996;BME280;64681;49.738;9.004;2023-05-07T11:51:19;99446.13;;;24.92;43.21
75996;BME280;64681;49.738;9.004;2023-05-07T11:53:45;99440.94;;;24.44;42.96
75996;BME280;64681;49.738;9.004;2023-05-07T11:56:13;99437.41;;;24.44;42.96
75996;BME280;64681;49.738;9.004;2023-05-07T11:58:40;99442.22;;;23.99;43.54
75996;BME280;64681;49.738;9.004;2023-05-07T12:04:03;99435.28;;;23.95;44.56
75996;BME280;64681;49.738;9.004;2023-05-07T12:06:53;99431.53;;;24.09;43.35
75996;BME280;64681;49.738;9.004;2023-05-07T12:09:53;99430.81;;;24.05;43.57
75996;BME280;64681;49.738;9.004;2023-05-07T12:13:33;99409.00;;;24.41;42.98
75996;BME280;64681;49.738;9.004;2023-05-07T12:16:31;99393.81;;;24.40;42.39
75996;BME280;64681;49.738;9.004;2023-05-07T12:19:31;99422.44;;;24.52;44.51
75996;BME280;64681;49.738;9.004;2023-05-07T12:21:58;99421.72;;;24.85;42.27
75996;BME280;64681;49.738;9.004;2023-05-07T12:24:24;99428.91;;;24.95;41.33
75996;BME280;64681;49.738;9.004;2023-05-07T12:26:50;99428.81;;;24.09;43.07
75996;BME280;64681;49.738;9.004;2023-05-07T12:29:16;99434.16;;;24.69;42.83
75996;BME280;64681;49.738;9.004;2023-05-07T12:31:42;99429.69;;;24.59;44.51
75996;BME280;64681;49.738;9.004;2023-05-07T12:34:10;99428.81;;;24.82;44.10
75996;BME280;64681;49.738;9.004;2023-05-07T12:36:37;99414.22;;;24.72;42.05
75996;BME280;64681;49.738;9.004;2023-05-07T12:39:07;99414.22;;;24.15;42.75
75996;BME280;64681;49.738;9.004;2023-05-07T12:41:52;99420.38;;;24.40;42.63
75996;BME280;64681;49.738;9.004;2023-05-07T12:44:18;99407.94;;;23.98;41.78
75996;BME280;64681;49.738;9.004;2023-05-07T12:46:43;99423.47;;;24.01;42.60
75996;BME280;64681;49.738;9.004;2023-05-07T12:49:09;99419.03;;;23.87;43.33
75996;BME280;64681;49.738;9.004;2023-05-07T12:51:35;99411.34;;;23.62;45.03
75996;BME280;64681;49.738;9.004;2023-05-07T12:54:01;99416.63;;;23.93;42.92
75996;BME280;64681;49.738;9.004;2023-05-07T12:56:27;99417.44;;;23.46;43.66
75996;BME280;64681;49.738;9.004;2023-05-07T12:58:57;99417.56;;;23.15;44.73
75996;BME280;64681;49.738;9.004;2023-05-07T13:01:33;99406.53;;;23.90;43.94
75996;BME280;64681;49.738;9.004;2023-05-07T13:04:03;99405.41;;;24.28;43.82
75996;BME280;64681;49.738;9.004;2023-05-07T13:06:30;99399.25;;;24.60;42.89
75996;BME280;64681;49.738;9.004;2023-05-07T13:08:56;99381.84;;;24.87;43.47
75996;BME280;64681;49.738;9.004;2023-05-07T13:11:22;99403.94;;;25.26;42.93
75996;BME280;64681;49.738;9.004;2023-05-07T13:13:48;99401.97;;;25.43;41.07
75996;BME280;64681;49.738;9.004;2023-05-07T13:16:13;99381.50;;;25.18;42.46
75996;BME280;64681;49.738;9.004;2023-05-07T13:18:40;99389.72;;;24.69;42.38
75996;BME280;64681;49.738;9.004;2023-05-07T13:21:08;99371.63;;;24.91;42.19
75996;BME280;64681;49.738;9.004;2023-05-07T13:23:35;99390.41;;;24.89;42.02
75996;BME280;64681;49.738;9.004;2023-05-07T13:26:00;99387.59;;;24.93;41.81
75996;BME280;64681;49.738;9.004;2023-05-07T13:28:26;99386.38;;;24.94;41.94